createdAt,value
2023-02-01T00:01:10.424Z,7.40
2023-02-01T00:03:38.194Z,7.20
2023-02-01T00:06:05.960Z,6.10
2023-02-01T00:08:34.115Z,6.00
2023-02-01T00:11:03.751Z,5.40
2023-02-01T00:13:33.447Z,5.40
2023-02-01T00:16:22.175Z,5.70
2023-02-01T00:18:52.308Z,5.00
2023-02-01T00:21:21.484Z,4.80
2023-02-01T00:23:49.359Z,5.40
2023-02-01T00:26:19.522Z,5.10
2023-02-01T00:28:47.304Z,4.50
2023-02-01T00:31:15.976Z,4.70
2023-02-01T00:33:43.941Z,4.30
2023-02-01T00:36:11.889Z,3.60
2023-02-01T00:38:40.391Z,3.70
2023-02-01T00:41:12.913Z,3.40
2023-02-01T00:43:40.741Z,3.30
2023-02-01T00:46:09.092Z,3.30
2023-02-01T00:48:37.424Z,3.40
2023-02-01T00:51:07.496Z,3.60
2023-02-01T00:53:35.782Z,3.50
2023-02-01T00:56:04.536Z,2.90
2023-02-01T00:58:33.157Z,3.10
2023-02-01T01:01:01.686Z,3.00
2023-02-01T01:03:30.467Z,2.80
2023-02-01T01:05:58.532Z,2.90
2023-02-01T01:08:26.234Z,3.00
2023-02-01T01:10:54.062Z,3.20
2023-02-01T01:13:21.807Z,3.30
2023-02-01T01:15:49.693Z,3.70
2023-02-01T01:18:17.363Z,4.00
2023-02-01T01:20:45.082Z,3.10
2023-02-01T01:23:12.690Z,3.80
2023-02-01T01:25:40.722Z,3.40
2023-02-01T01:28:08.475Z,3.00
2023-02-01T01:30:36.490Z,2.90
2023-02-01T01:33:04.212Z,3.70
2023-02-01T01:35:32.741Z,3.90
2023-02-01T01:38:01.217Z,4.30
2023-02-01T01:40:30.033Z,3.80
2023-02-01T01:42:58.735Z,2.90
2023-02-01T01:45:28.013Z,3.00
2023-02-01T01:48:01.673Z,3.80
2023-02-01T01:50:34.835Z,3.00
2023-02-01T01:53:04.594Z,3.70
2023-02-01T01:55:35.022Z,3.20
2023-02-01T01:58:10.973Z,3.10
2023-02-01T02:00:39.423Z,3.60
2023-02-01T02:03:23.900Z,3.60
2023-02-01T02:05:53.316Z,3.70
2023-02-01T02:08:23.504Z,3.70
2023-02-01T02:11:00.775Z,3.40
2023-02-01T02:13:43.316Z,3.60
2023-02-01T02:16:17.132Z,3.40
2023-02-01T02:19:27.310Z,3.80
2023-02-01T02:22:13.233Z,3.40
2023-02-01T02:24:59.722Z,4.30
2023-02-01T02:27:39.785Z,4.40
2023-02-01T02:30:35.799Z,3.90
2023-02-01T02:33:20.089Z,4.00
2023-02-01T02:35:50.044Z,4.50
2023-02-01T02:38:58.431Z,4.40
2023-02-01T02:41:51.968Z,5.00
2023-02-01T02:44:56.417Z,4.90
2023-02-01T02:47:35.177Z,5.60
2023-02-01T02:50:47.903Z,5.10
2023-02-01T02:53:38.833Z,4.80
2023-02-01T02:56:27.662Z,4.80
2023-02-01T02:59:14.529Z,4.00
2023-02-01T03:02:02.021Z,4.20
2023-02-01T03:04:29.716Z,4.50
2023-02-01T03:06:57.427Z,4.50
2023-02-01T03:09:33.183Z,4.60
2023-02-01T03:12:23.886Z,5.60
2023-02-01T03:14:54.799Z,4.60
2023-02-01T03:17:29.798Z,5.30
2023-02-01T03:20:01.268Z,5.20
2023-02-01T03:22:32.749Z,5.10
2023-02-01T03:25:07.890Z,4.90
2023-02-01T03:27:41.386Z,4.50
2023-02-01T03:30:21.731Z,4.50
2023-02-01T03:33:01.115Z,4.40
2023-02-01T03:35:52.800Z,4.10
2023-02-01T03:38:29.003Z,5.10
2023-02-01T03:41:28.296Z,4.60
2023-02-01T03:44:15.628Z,5.30
2023-02-01T03:46:50.996Z,4.60
2023-02-01T03:49:53.323Z,4.60
2023-02-01T03:52:36.146Z,4.90
2023-02-01T03:55:06.677Z,4.70
2023-02-01T03:57:36.824Z,5.20
2023-02-01T04:00:18.945Z,4.40
2023-02-01T04:02:46.720Z,4.50
2023-02-01T04:05:14.663Z,5.50
2023-02-01T04:07:47.803Z,4.90
2023-02-01T04:10:17.999Z,4.70
2023-02-01T04:12:47.052Z,4.20
2023-02-01T04:15:14.803Z,4.10
2023-02-01T04:17:42.500Z,4.30
2023-02-01T04:20:10.995Z,4.40
2023-02-01T04:22:38.660Z,4.40
2023-02-01T04:25:07.315Z,4.70
2023-02-01T04:27:36.034Z,4.50
2023-02-01T04:30:10.592Z,4.60
2023-02-01T04:32:39.318Z,4.50
2023-02-01T04:35:07.873Z,3.90
2023-02-01T04:37:35.623Z,3.60
2023-02-01T04:40:04.717Z,4.00
2023-02-01T04:42:32.415Z,3.90
2023-02-01T04:45:00.136Z,3.70
2023-02-01T04:47:27.818Z,3.60
2023-02-01T04:49:55.770Z,4.60
2023-02-01T04:52:23.456Z,3.60
2023-02-01T04:54:51.132Z,4.40
2023-02-01T04:57:18.762Z,4.00
2023-02-01T04:59:46.482Z,3.90
2023-02-01T05:02:14.114Z,3.70
2023-02-01T05:04:41.795Z,4.20
2023-02-01T05:07:09.479Z,4.00
2023-02-01T05:09:37.314Z,4.40
2023-02-01T05:12:24.732Z,4.50
2023-02-01T05:14:52.394Z,3.90
2023-02-01T05:17:20.136Z,4.10
2023-02-01T05:19:47.793Z,4.90
2023-02-01T05:22:15.441Z,4.10
2023-02-01T05:24:43.144Z,4.40
2023-02-01T05:27:11.030Z,3.90
2023-02-01T05:29:38.738Z,4.20
2023-02-01T05:32:21.116Z,4.30
2023-02-01T05:34:49.878Z,4.50
2023-02-01T05:37:17.573Z,4.10
2023-02-01T05:39:45.343Z,4.40
2023-02-01T05:42:13.020Z,5.00
2023-02-01T05:44:40.743Z,4.30
2023-02-01T05:47:08.561Z,4.80
2023-02-01T05:49:36.256Z,4.60
2023-02-01T05:52:04.043Z,5.10
2023-02-01T05:54:31.726Z,3.90
2023-02-01T05:56:59.367Z,5.30
2023-02-01T05:59:27.049Z,4.20
2023-02-01T06:01:54.682Z,4.40
2023-02-01T06:04:22.404Z,4.90
2023-02-01T06:06:51.409Z,4.40
2023-02-01T06:09:19.182Z,5.30
2023-02-01T06:11:46.885Z,4.70
2023-02-01T06:14:14.621Z,4.60
2023-02-01T06:16:42.342Z,4.90
2023-02-01T06:19:10.007Z,4.70
2023-02-01T06:21:37.790Z,4.40
2023-02-01T06:24:05.681Z,4.10
2023-02-01T06:26:34.206Z,4.70
2023-02-01T06:29:01.922Z,4.60
2023-02-01T06:31:29.857Z,4.90
2023-02-01T06:33:58.416Z,3.80
2023-02-01T06:36:26.234Z,4.00
2023-02-01T06:38:54.084Z,4.80
2023-02-01T06:41:21.783Z,4.70
2023-02-01T06:43:50.108Z,4.20
2023-02-01T06:46:18.192Z,4.60
2023-02-01T06:48:47.111Z,4.60
2023-02-01T06:51:27.185Z,4.50
2023-02-01T06:53:55.020Z,4.70
2023-02-01T06:56:22.886Z,4.50
2023-02-01T06:58:50.938Z,4.20
2023-02-01T07:01:18.659Z,4.40
2023-02-01T07:03:51.929Z,4.20
2023-02-01T07:06:20.324Z,5.00
2023-02-01T07:08:48.044Z,4.90
2023-02-01T07:11:16.798Z,5.40
2023-02-01T07:13:44.897Z,5.20
2023-02-01T07:16:15.940Z,5.70
2023-02-01T07:18:44.414Z,4.70
2023-02-01T07:21:12.861Z,5.60
2023-02-01T07:23:40.740Z,4.60
2023-02-01T07:26:11.908Z,5.10
2023-02-01T07:28:40.056Z,4.50
2023-02-01T07:31:14.647Z,4.70
2023-02-01T07:33:42.941Z,6.10
2023-02-01T07:36:18.123Z,5.40
2023-02-01T07:38:48.040Z,4.70
2023-02-01T07:41:15.928Z,4.30
2023-02-01T07:43:44.097Z,6.00
2023-02-01T07:46:12.717Z,5.50
2023-02-01T07:48:40.521Z,6.10
2023-02-01T07:51:14.068Z,4.80
2023-02-01T07:53:42.930Z,5.40
2023-02-01T07:56:18.803Z,5.50
2023-02-01T07:58:54.410Z,5.30
2023-02-01T08:01:27.985Z,4.70
2023-02-01T08:04:00.004Z,5.60
2023-02-01T08:06:32.317Z,5.50
2023-02-01T08:09:00.204Z,5.80
2023-02-01T08:11:28.296Z,7.00
2023-02-01T08:13:56.359Z,6.50
2023-02-01T08:16:24.672Z,5.90
2023-02-01T08:18:53.560Z,5.10
2023-02-01T08:21:27.201Z,6.00
2023-02-01T08:23:54.912Z,5.70
2023-02-01T08:26:25.056Z,5.30
2023-02-01T08:28:59.021Z,7.00
2023-02-01T08:31:28.970Z,5.70
2023-02-01T08:33:59.248Z,8.50
2023-02-01T08:36:29.284Z,7.40
2023-02-01T08:38:57.555Z,5.50
2023-02-01T08:41:27.801Z,6.60
2023-02-01T08:43:57.084Z,6.40
2023-02-01T08:46:25.217Z,6.00
2023-02-01T08:48:53.068Z,6.10
2023-02-01T08:51:22.590Z,6.60
2023-02-01T08:53:50.838Z,6.60
2023-02-01T08:56:20.265Z,6.00
2023-02-01T08:58:48.174Z,5.40
2023-02-01T09:01:17.905Z,5.60
2023-02-01T09:03:46.504Z,5.70
2023-02-01T09:06:16.033Z,7.00
2023-02-01T09:08:44.236Z,5.90
2023-02-01T09:11:15.124Z,5.90
2023-02-01T09:13:43.476Z,6.70
2023-02-01T09:16:12.109Z,6.30
2023-02-01T09:18:50.409Z,6.10
2023-02-01T09:21:24.837Z,6.20
2023-02-01T09:23:52.766Z,7.10
2023-02-01T09:26:26.434Z,6.50
2023-02-01T09:28:59.341Z,6.70
2023-02-01T09:31:27.575Z,6.10
2023-02-01T09:33:55.555Z,7.10
2023-02-01T09:36:24.418Z,6.40
2023-02-01T09:38:53.395Z,7.10
2023-02-01T09:41:42.874Z,6.50
2023-02-01T09:44:44.612Z,7.80
2023-02-01T09:47:18.819Z,6.80
2023-02-01T09:50:02.839Z,8.80
2023-02-01T09:52:44.614Z,8.70
2023-02-01T09:55:20.006Z,10.50
2023-02-01T09:57:54.716Z,11.60
2023-02-01T10:00:29.450Z,16.30
2023-02-01T10:02:57.528Z,12.20
2023-02-01T10:05:47.116Z,18.90
2023-02-01T10:08:31.912Z,16.30
2023-02-01T10:11:13.900Z,14.80
2023-02-01T10:13:55.485Z,10.20
2023-02-01T10:16:51.138Z,9.00
2023-02-01T10:19:27.813Z,10.00
2023-02-01T10:22:04.153Z,10.70
2023-02-01T10:24:44.122Z,9.70
2023-02-01T10:27:19.175Z,10.40
2023-02-01T10:29:52.914Z,9.80
2023-02-01T10:32:32.808Z,9.80
2023-02-01T10:35:03.194Z,9.30
2023-02-01T10:37:33.274Z,9.20
2023-02-01T10:40:18.505Z,9.50
2023-02-01T10:42:47.705Z,9.80
2023-02-01T10:45:19.350Z,11.00
2023-02-01T10:47:49.467Z,10.70
2023-02-01T10:50:41.432Z,9.90
2023-02-01T10:53:32.441Z,8.70
2023-02-01T10:56:10.071Z,8.70
2023-02-01T10:58:45.490Z,7.80
2023-02-01T11:01:22.742Z,8.50
2023-02-01T11:03:58.928Z,8.40
2023-02-01T11:06:41.635Z,8.90
2023-02-01T11:09:09.305Z,8.20
2023-02-01T11:11:54.880Z,7.30
2023-02-01T11:14:25.370Z,8.20
2023-02-01T11:17:00.922Z,8.40
2023-02-01T11:19:29.532Z,9.00
2023-02-01T11:21:59.792Z,7.90
2023-02-01T11:24:30.682Z,8.30
2023-02-01T11:27:00.377Z,9.20
2023-02-01T11:29:31.376Z,7.80
2023-02-01T11:32:00.608Z,7.10
2023-02-01T11:34:41.426Z,8.10
2023-02-01T11:37:19.210Z,7.80
2023-02-01T11:39:58.979Z,7.70
2023-02-01T11:42:29.264Z,8.90
2023-02-01T11:45:19.691Z,8.40
2023-02-01T11:47:47.569Z,7.50
2023-02-01T11:50:18.914Z,8.30
2023-02-01T11:53:10.938Z,8.30
2023-02-01T11:55:58.282Z,8.60
2023-02-01T11:58:56.711Z,8.90
2023-02-01T12:01:33.460Z,7.90
2023-02-01T12:04:13.979Z,7.30
2023-02-01T12:07:03.338Z,5.60
2023-02-01T12:09:57.549Z,5.30
2023-02-01T12:12:31.901Z,5.30
2023-02-01T12:15:23.835Z,5.40
2023-02-01T12:18:19.915Z,5.20
2023-02-01T12:21:05.432Z,4.80
2023-02-01T12:24:03.045Z,5.20
2023-02-01T12:26:46.161Z,3.90
2023-02-01T12:29:23.449Z,5.20
2023-02-01T12:32:45.768Z,5.10
2023-02-01T12:35:32.183Z,4.90
2023-02-01T12:38:21.533Z,7.30
2023-02-01T12:41:08.617Z,5.80
2023-02-01T12:43:58.510Z,6.10
2023-02-01T12:46:34.124Z,5.80
2023-02-01T12:49:05.794Z,6.40
2023-02-01T12:51:39.172Z,5.80
2023-02-01T12:54:36.419Z,5.90
2023-02-01T12:57:08.956Z,6.60
2023-02-01T12:59:53.004Z,7.00
2023-02-01T13:02:28.830Z,8.00
2023-02-01T13:05:07.576Z,9.20
2023-02-01T13:07:42.660Z,8.90
2023-02-01T13:10:18.929Z,9.40
2023-02-01T13:13:01.331Z,9.60
2023-02-01T13:15:32.586Z,9.00
2023-02-01T13:18:04.017Z,9.30
2023-02-01T13:20:35.491Z,9.20
2023-02-01T13:23:14.003Z,9.70
2023-02-01T13:25:50.819Z,9.20
2023-02-01T13:28:42.159Z,9.90
2023-02-01T13:31:32.673Z,8.10
2023-02-01T13:34:24.383Z,8.50
2023-02-01T13:37:01.046Z,8.40
2023-02-01T13:39:46.832Z,8.40
2023-02-01T13:42:23.227Z,10.00
2023-02-01T13:44:55.843Z,9.30
2023-02-01T13:47:35.350Z,8.00
2023-02-01T13:50:28.085Z,6.90
2023-02-01T13:52:59.610Z,7.20
2023-02-01T13:55:47.104Z,23.80
2023-02-01T13:58:21.853Z,59.60
2023-02-01T14:00:52.323Z,31.40
2023-02-01T14:03:43.400Z,24.10
2023-02-01T14:06:17.184Z,11.60
2023-02-01T14:08:46.339Z,10.50
2023-02-01T14:11:37.152Z,11.80
2023-02-01T14:14:28.661Z,12.40
2023-02-01T14:16:56.334Z,12.30
2023-02-01T14:19:29.557Z,15.00
2023-02-01T14:22:02.098Z,17.20
2023-02-01T14:24:36.460Z,21.80
2023-02-01T14:27:19.089Z,21.70
2023-02-01T14:29:59.070Z,18.00
2023-02-01T14:32:32.929Z,17.40
2023-02-01T14:35:01.942Z,26.50
2023-02-01T14:37:37.615Z,17.10
2023-02-01T14:40:07.422Z,12.10
2023-02-01T14:42:49.573Z,12.40
2023-02-01T14:45:21.098Z,12.30
2023-02-01T14:48:16.220Z,14.60
2023-02-01T14:50:50.727Z,11.70
2023-02-01T14:53:22.956Z,10.20
2023-02-01T14:55:59.716Z,13.90
2023-02-01T14:58:43.782Z,11.00
2023-02-01T15:01:32.596Z,11.80
2023-02-01T15:04:11.435Z,11.70
2023-02-01T15:06:44.350Z,12.80
2023-02-01T15:09:26.902Z,14.10
2023-02-01T15:12:16.680Z,11.20
2023-02-01T15:14:50.286Z,11.00
2023-02-01T15:17:25.271Z,11.40
2023-02-01T15:19:57.886Z,10.00
2023-02-01T15:22:26.665Z,10.00
2023-02-01T15:24:56.693Z,13.90
2023-02-01T15:27:25.972Z,11.40
2023-02-01T15:29:53.954Z,10.00
2023-02-01T15:32:35.342Z,10.50
2023-02-01T15:35:03.723Z,9.00
2023-02-01T15:37:32.178Z,13.90
2023-02-01T15:40:12.046Z,10.60
2023-02-01T15:42:57.403Z,12.40
2023-02-01T15:45:30.738Z,9.20
2023-02-01T15:47:59.411Z,11.60
2023-02-01T15:50:28.683Z,11.20
2023-02-01T15:52:56.668Z,9.70
2023-02-01T15:55:34.211Z,9.80
2023-02-01T15:58:07.294Z,13.80
2023-02-01T16:00:46.477Z,14.40
2023-02-01T16:03:36.581Z,9.40
2023-02-01T16:06:07.324Z,13.80
2023-02-01T16:08:37.676Z,8.70
2023-02-01T16:11:08.090Z,15.30
2023-02-01T16:13:36.425Z,7.50
2023-02-01T16:16:08.866Z,12.20
2023-02-01T16:18:36.815Z,8.90
2023-02-01T16:21:04.696Z,8.40
2023-02-01T16:23:32.595Z,10.40
2023-02-01T16:26:00.443Z,7.60
2023-02-01T16:28:28.128Z,7.60
2023-02-01T16:30:55.850Z,8.80
2023-02-01T16:33:24.277Z,8.00
2023-02-01T16:35:52.797Z,8.00
2023-02-01T16:38:23.154Z,8.20
2023-02-01T16:40:51.165Z,7.60
2023-02-01T16:43:21.306Z,8.40
2023-02-01T16:45:51.111Z,8.30
2023-02-01T16:48:27.911Z,7.80
2023-02-01T16:50:58.065Z,8.60
2023-02-01T16:53:28.595Z,6.70
2023-02-01T16:55:58.306Z,6.70
2023-02-01T16:58:27.472Z,8.90
2023-02-01T17:00:55.671Z,8.30
2023-02-01T17:03:23.508Z,8.10
2023-02-01T17:05:53.690Z,8.60
2023-02-01T17:08:42.781Z,8.30
2023-02-01T17:11:12.845Z,8.40
2023-02-01T17:13:42.139Z,7.60
2023-02-01T17:16:19.166Z,12.40
2023-02-01T17:19:08.171Z,11.00
2023-02-01T17:21:56.573Z,15.90
2023-02-01T17:24:35.890Z,10.40
2023-02-01T17:27:10.308Z,18.00
2023-02-01T17:29:38.297Z,18.40
2023-02-01T17:32:06.733Z,14.60
2023-02-01T17:34:34.601Z,13.00
2023-02-01T17:37:02.307Z,16.40
2023-02-01T17:39:48.791Z,16.00
2023-02-01T17:42:16.470Z,18.00
2023-02-01T17:44:44.168Z,18.60
2023-02-01T17:47:11.795Z,13.00
2023-02-01T17:49:39.628Z,21.00
2023-02-01T17:52:12.632Z,17.60
2023-02-01T17:54:40.298Z,15.60
2023-02-01T17:57:14.539Z,16.60
2023-02-01T17:59:42.994Z,15.90
2023-02-01T18:02:21.103Z,15.70
2023-02-01T18:04:49.854Z,18.00
2023-02-01T18:07:17.609Z,13.80
2023-02-01T18:09:45.340Z,16.00
2023-02-01T18:12:21.174Z,20.00
2023-02-01T18:14:49.119Z,13.20
2023-02-01T18:17:16.882Z,17.20
2023-02-01T18:19:44.569Z,28.00
2023-02-01T18:22:17.667Z,29.60
2023-02-01T18:24:45.541Z,15.70
2023-02-01T18:27:13.392Z,20.30
2023-02-01T18:29:41.046Z,17.00
2023-02-01T18:32:10.072Z,16.50
2023-02-01T18:34:37.933Z,14.30
2023-02-01T18:37:05.658Z,13.10
2023-02-01T18:39:33.366Z,12.70
2023-02-01T18:42:01.180Z,14.00
2023-02-01T18:44:29.007Z,14.10
2023-02-01T18:46:57.307Z,11.90
2023-02-01T18:49:25.061Z,13.60
2023-02-01T18:51:53.053Z,11.40
2023-02-01T18:54:20.768Z,10.00
2023-02-01T18:56:48.509Z,8.20
2023-02-01T18:59:17.483Z,9.30
2023-02-01T19:01:45.342Z,10.40
2023-02-01T19:04:19.551Z,9.30
2023-02-01T19:06:53.975Z,9.70
2023-02-01T19:09:21.768Z,13.00
2023-02-01T19:11:49.556Z,10.90
2023-02-01T19:14:17.239Z,9.60
2023-02-01T19:16:44.930Z,12.70
2023-02-01T19:19:12.663Z,11.40
2023-02-01T19:21:40.345Z,12.40
2023-02-01T19:24:08.060Z,11.40
2023-02-01T19:26:35.732Z,11.00
2023-02-01T19:29:04.421Z,13.90
2023-02-01T19:31:32.255Z,13.60
2023-02-01T19:34:00.269Z,12.50
2023-02-01T19:36:28.469Z,13.00
2023-02-01T19:38:56.163Z,13.40
2023-02-01T19:41:23.836Z,13.60
2023-02-01T19:43:51.516Z,14.20
2023-02-01T19:46:19.296Z,15.20
2023-02-01T19:48:47.771Z,15.00
2023-02-01T19:51:15.622Z,16.50
2023-02-01T19:53:44.361Z,16.50
2023-02-01T19:56:12.175Z,16.40
2023-02-01T19:58:39.876Z,17.30
2023-02-01T20:01:06.830Z,19.50
2023-02-01T20:03:34.555Z,18.10
2023-02-01T20:06:02.587Z,17.40
2023-02-01T20:08:30.332Z,17.20
2023-02-01T20:10:58.016Z,19.20
2023-02-01T20:13:25.831Z,19.30
2023-02-01T20:15:57.863Z,19.70
2023-02-01T20:18:26.422Z,17.10
2023-02-01T20:20:58.374Z,15.20
2023-02-01T20:23:27.715Z,15.10
2023-02-01T20:26:02.737Z,17.70
2023-02-01T20:28:31.167Z,14.80
2023-02-01T20:30:59.526Z,15.60
2023-02-01T20:33:28.878Z,15.10
2023-02-01T20:35:56.660Z,13.80
2023-02-01T20:38:24.306Z,13.40
2023-02-01T20:40:52.635Z,16.60
2023-02-01T20:43:20.409Z,14.60
2023-02-01T20:45:49.551Z,17.70
2023-02-01T20:48:17.319Z,19.30
2023-02-01T20:50:45.113Z,16.00
2023-02-01T20:53:25.329Z,17.10
2023-02-01T20:55:55.923Z,18.40
2023-02-01T20:58:24.187Z,19.20
2023-02-01T21:00:52.047Z,18.30
2023-02-01T21:03:20.140Z,20.40
2023-02-01T21:05:50.156Z,20.60
2023-02-01T21:08:18.624Z,12.50
2023-02-01T21:11:00.924Z,16.90
2023-02-01T21:13:31.187Z,14.60
2023-02-01T21:15:59.094Z,13.60
2023-02-01T21:18:26.899Z,14.90
2023-02-01T21:20:54.857Z,14.00
2023-02-01T21:23:22.601Z,13.60
2023-02-01T21:25:50.454Z,18.20
2023-02-01T21:28:18.219Z,15.40
2023-02-01T21:30:45.890Z,14.70
2023-02-01T21:33:13.703Z,12.70
2023-02-01T21:35:42.312Z,11.30
2023-02-01T21:38:10.198Z,12.80
2023-02-01T21:40:37.922Z,11.60
2023-02-01T21:43:05.564Z,10.90
2023-02-01T21:45:33.244Z,11.70
2023-02-01T21:48:02.193Z,9.80
2023-02-01T21:50:30.061Z,9.80
2023-02-01T21:52:57.711Z,10.10
2023-02-01T21:55:25.703Z,9.50
2023-02-01T21:57:53.694Z,11.20
2023-02-01T22:00:21.609Z,9.10
2023-02-01T22:02:49.247Z,8.70
2023-02-01T22:05:17.478Z,11.20
2023-02-01T22:07:45.103Z,9.30
2023-02-01T22:10:13.242Z,11.10
2023-02-01T22:12:40.889Z,9.20
2023-02-01T22:15:08.853Z,10.70
2023-02-01T22:17:36.662Z,14.20
2023-02-01T22:20:05.289Z,10.70
2023-02-01T22:22:33.022Z,13.40
2023-02-01T22:25:00.706Z,14.20
2023-02-01T22:28:30.183Z,13.00
2023-02-01T22:30:16.421Z,12.90
2023-02-01T22:32:44.081Z,11.50
2023-02-01T22:35:11.799Z,12.00
2023-02-01T22:37:40.098Z,14.20
2023-02-01T22:40:08.952Z,13.40
2023-02-01T22:42:36.652Z,14.50
2023-02-01T22:45:04.736Z,14.80
2023-02-01T22:47:32.450Z,12.00
2023-02-01T22:50:00.132Z,13.90
2023-02-01T22:52:27.779Z,12.20
2023-02-01T22:54:55.480Z,12.90
2023-02-01T22:57:23.223Z,12.60
2023-02-01T22:59:50.915Z,11.80
2023-02-01T23:02:18.566Z,11.20
2023-02-01T23:04:46.382Z,11.80
2023-02-01T23:07:14.573Z,11.90
2023-02-01T23:09:42.225Z,11.60
2023-02-01T23:12:09.916Z,11.40
2023-02-01T23:14:57.616Z,11.50
2023-02-01T23:17:25.299Z,12.40
2023-02-01T23:19:52.967Z,11.90
2023-02-01T23:22:20.648Z,13.10
2023-02-01T23:24:49.132Z,11.80
2023-02-01T23:27:16.836Z,10.90
2023-02-01T23:29:44.503Z,10.20
2023-02-01T23:32:12.148Z,10.50
2023-02-01T23:34:40.616Z,11.90
2023-02-01T23:37:08.260Z,10.90
2023-02-01T23:39:35.951Z,11.80
2023-02-01T23:42:04.856Z,10.50
2023-02-01T23:44:32.506Z,10.00
2023-02-01T23:47:01.411Z,11.30
2023-02-01T23:49:29.142Z,10.60
2023-02-01T23:51:56.851Z,11.80
2023-02-01T23:54:24.607Z,11.10
2023-02-01T23:56:52.381Z,11.00
2023-02-01T23:59:22.053Z,11.20
